createdAt,value
2018-11-21T00:01:52.230Z,4.02
2018-11-21T00:04:42.342Z,4.02
2018-11-21T00:07:35.812Z,4.01
2018-11-21T00:10:44.484Z,4.02
2018-11-21T00:13:34.285Z,4.34
2018-11-21T00:16:24.333Z,4.46
2018-11-21T00:19:14.173Z,4.43
2018-11-21T00:22:03.980Z,4.35
2018-11-21T00:24:54.204Z,4.46
2018-11-21T00:27:44.532Z,4.27
2018-11-21T00:38:38.200Z,4.08
2018-11-21T00:41:28.353Z,4.05
2018-11-21T00:44:18.155Z,3.96
2018-11-21T00:47:08.038Z,4.12
2018-11-21T00:50:16.992Z,4.10
2018-11-21T00:53:07.800Z,3.92
2018-11-21T00:55:57.603Z,4.17
2018-11-21T00:58:47.415Z,4.20
2018-11-21T01:01:37.576Z,4.05
2018-11-21T01:04:28.024Z,4.03
2018-11-21T01:07:18.248Z,4.14
2018-11-21T01:10:08.069Z,4.17
2018-11-21T01:12:57.855Z,4.21
2018-11-21T01:15:48.007Z,4.18
2018-11-21T01:18:38.630Z,4.21
2018-11-21T01:21:28.799Z,4.18
2018-11-21T01:24:19.156Z,4.09
2018-11-21T01:30:04.035Z,3.91
2018-11-21T01:32:53.843Z,4.00
2018-11-21T01:35:43.911Z,4.18
2018-11-21T01:38:33.703Z,4.03
2018-11-21T01:41:23.748Z,4.02
2018-11-21T01:44:13.567Z,3.94
2018-11-21T01:47:03.760Z,3.98
2018-11-21T01:50:13.012Z,3.75
2018-11-21T01:53:03.415Z,3.75
2018-11-21T01:55:53.226Z,3.54
2018-11-21T01:58:43.595Z,3.74
2018-11-21T02:01:33.439Z,3.76
2018-11-21T02:04:23.242Z,3.74
2018-11-21T02:07:13.058Z,3.70
2018-11-21T02:09:55.393Z,3.71
2018-11-21T02:12:45.540Z,3.83
2018-11-21T02:15:35.345Z,3.87
2018-11-21T02:18:25.236Z,3.88
2018-11-21T02:21:33.660Z,3.83
2018-11-21T02:24:42.508Z,3.78
2018-11-21T02:27:32.322Z,3.91
2018-11-21T02:30:22.152Z,3.92
2018-11-21T02:33:11.963Z,3.85
2018-11-21T02:36:01.775Z,3.80
2018-11-21T02:38:51.718Z,3.89
2018-11-21T02:41:41.548Z,3.80
2018-11-21T02:44:31.376Z,3.86
2018-11-21T02:47:21.233Z,3.86
2018-11-21T02:50:11.057Z,3.86
2018-11-21T02:53:00.900Z,3.84
2018-11-21T02:55:50.706Z,3.85
2018-11-21T02:58:40.830Z,3.76
2018-11-21T03:01:30.660Z,3.55
2018-11-21T03:04:20.843Z,3.43
2018-11-21T03:07:10.842Z,3.57
2018-11-21T03:10:19.597Z,3.49
2018-11-21T03:13:09.451Z,3.51
2018-11-21T03:15:59.473Z,3.50
2018-11-21T03:18:50.303Z,3.53
2018-11-21T03:21:59.292Z,3.54
2018-11-21T03:24:49.755Z,3.42
2018-11-21T03:27:39.892Z,3.48
2018-11-21T03:30:29.703Z,3.48
2018-11-21T03:33:38.168Z,3.59
2018-11-21T03:36:28.485Z,3.52
2018-11-21T03:39:37.270Z,3.51
2018-11-21T03:42:27.451Z,3.58
2018-11-21T03:45:17.781Z,3.50
2018-11-21T03:48:08.606Z,3.44
2018-11-21T03:50:58.422Z,3.38
2018-11-21T03:53:48.505Z,3.43
2018-11-21T03:56:39.341Z,3.63
2018-11-21T03:59:29.732Z,3.44
2018-11-21T04:02:19.533Z,3.37
2018-11-21T04:05:10.046Z,3.36
2018-11-21T04:07:59.839Z,3.32
2018-11-21T04:10:49.935Z,3.30
2018-11-21T04:13:32.204Z,3.07
2018-11-21T04:16:22.052Z,3.10
2018-11-21T04:19:11.916Z,3.17
2018-11-21T04:22:01.723Z,3.20
2018-11-21T04:24:51.549Z,3.24
2018-11-21T04:27:41.609Z,3.12
2018-11-21T04:30:31.745Z,3.20
2018-11-21T04:33:21.548Z,3.21
2018-11-21T04:39:28.527Z,3.21
2018-11-21T04:42:18.598Z,3.05
2018-11-21T04:45:10.624Z,3.09
2018-11-21T04:48:00.609Z,2.87
2018-11-21T04:50:50.428Z,3.13
2018-11-21T04:53:40.232Z,3.09
2018-11-21T04:56:30.048Z,3.19
2018-11-21T04:59:19.872Z,3.23
2018-11-21T05:02:09.920Z,3.19
2018-11-21T05:05:00.034Z,3.05
2018-11-21T05:08:08.456Z,3.07
2018-11-21T05:10:58.279Z,3.01
2018-11-21T05:13:48.087Z,2.93
2018-11-21T05:16:39.436Z,2.93
2018-11-21T05:19:29.296Z,2.88
2018-11-21T05:22:19.128Z,2.84
2018-11-21T05:25:10.099Z,2.87
2018-11-21T05:31:09.982Z,2.78
2018-11-21T05:33:59.776Z,2.80
2018-11-21T05:36:49.586Z,2.74
2018-11-21T05:39:39.425Z,2.74
2018-11-21T05:42:29.273Z,2.74
2018-11-21T05:45:19.360Z,2.78
2018-11-21T05:48:09.440Z,2.72
2018-11-21T05:50:59.241Z,2.89
2018-11-21T05:53:49.048Z,2.79
2018-11-21T05:56:38.891Z,2.78
2018-11-21T05:59:28.688Z,2.65
2018-11-21T06:02:19.030Z,2.61
2018-11-21T06:04:53.341Z,2.81
2018-11-21T06:07:46.880Z,2.77
2018-11-21T06:11:01.930Z,2.81
2018-11-21T06:13:52.084Z,2.94
2018-11-21T06:16:42.208Z,2.97
2018-11-21T06:19:32.018Z,2.90
2018-11-21T06:22:22.232Z,2.92
2018-11-21T06:25:30.670Z,2.89
2018-11-21T06:28:20.469Z,2.78
2018-11-21T06:31:10.286Z,2.82
2018-11-21T06:34:00.091Z,2.73
2018-11-21T06:36:49.940Z,2.69
2018-11-21T06:39:58.575Z,2.77
2018-11-21T06:43:07.277Z,2.74
2018-11-21T06:45:57.379Z,2.77
2018-11-21T06:48:47.569Z,2.75
2018-11-21T06:51:37.393Z,2.77
2018-11-21T06:54:27.705Z,2.98
2018-11-21T06:57:17.541Z,2.96
2018-11-21T07:00:08.683Z,2.86
2018-11-21T07:02:58.486Z,2.91
2018-11-21T07:06:06.922Z,3.08
2018-11-21T07:08:56.991Z,3.13
2018-11-21T07:11:47.363Z,3.20
2018-11-21T07:14:36.675Z,3.26
2018-11-21T07:17:26.521Z,3.47
2018-11-21T07:20:16.660Z,3.48
2018-11-21T07:22:58.639Z,3.56
2018-11-21T07:25:48.451Z,3.59
2018-11-21T07:28:38.546Z,3.72
2018-11-21T07:31:28.381Z,3.78
2018-11-21T07:34:19.435Z,3.77
2018-11-21T07:36:52.319Z,3.67
2018-11-21T07:39:42.138Z,3.64
2018-11-21T07:42:32.282Z,3.56
2018-11-21T07:45:22.075Z,3.44
2018-11-21T07:48:11.884Z,3.66
2018-11-21T07:50:42.633Z,3.84
2018-11-21T07:53:13.412Z,3.91
2018-11-21T07:56:03.227Z,3.90
2018-11-21T07:58:53.015Z,3.84
2018-11-21T08:02:01.478Z,3.95
2018-11-21T08:04:58.789Z,4.01
2018-11-21T08:08:07.249Z,3.88
2018-11-21T08:11:16.065Z,3.92
2018-11-21T08:14:24.637Z,3.81
2018-11-21T08:17:33.084Z,3.80
2018-11-21T08:20:41.551Z,3.89
2018-11-21T08:23:30.925Z,3.90
2018-11-21T08:26:26.172Z,3.95
2018-11-21T08:29:15.961Z,3.96
2018-11-21T08:32:05.765Z,3.91
2018-11-21T08:34:54.305Z,4.02
2018-11-21T08:37:44.101Z,4.04
2018-11-21T08:40:33.900Z,4.07
2018-11-21T08:43:24.400Z,4.14
2018-11-21T08:46:14.201Z,4.22
2018-11-21T08:49:03.987Z,4.24
2018-11-21T08:51:54.430Z,4.26
2018-11-21T08:54:44.307Z,4.41
2018-11-21T08:57:34.122Z,4.36
2018-11-21T09:00:24.428Z,4.33
2018-11-21T09:03:14.279Z,4.31
2018-11-21T09:06:04.469Z,4.56
2018-11-21T09:08:54.841Z,4.60
2018-11-21T09:14:59.415Z,4.69
2018-11-21T09:17:49.240Z,4.81
2018-11-21T09:20:39.039Z,4.86
2018-11-21T09:23:28.837Z,4.84
2018-11-21T09:26:18.651Z,4.96
2018-11-21T09:29:08.441Z,4.99
2018-11-21T09:31:58.276Z,5.04
2018-11-21T09:34:48.105Z,5.15
2018-11-21T09:37:38.051Z,5.21
2018-11-21T09:40:27.841Z,5.28
2018-11-21T09:43:17.639Z,5.23
2018-11-21T09:46:07.436Z,5.21
2018-11-21T09:48:57.251Z,5.26
2018-11-21T09:51:47.363Z,5.19
2018-11-21T09:54:37.459Z,5.14
2018-11-21T09:57:27.264Z,5.19
2018-11-21T10:00:55.290Z,5.20
2018-11-21T10:03:45.099Z,5.11
2018-11-21T10:06:37.595Z,5.16
2018-11-21T10:09:30.568Z,5.29
2018-11-21T10:12:20.414Z,5.14
2018-11-21T10:15:10.577Z,5.24
2018-11-21T10:18:00.664Z,5.22
2018-11-21T10:20:50.740Z,5.17
2018-11-21T10:23:40.564Z,5.25
2018-11-21T10:26:30.360Z,5.25
2018-11-21T10:29:20.173Z,5.27
2018-11-21T10:32:02.705Z,5.26
2018-11-21T10:34:52.526Z,5.27
2018-11-21T10:38:02.597Z,5.37
2018-11-21T10:40:52.640Z,5.24
2018-11-21T10:43:42.599Z,5.34
2018-11-21T10:46:32.414Z,5.17
2018-11-21T10:49:22.502Z,5.22
2018-11-21T10:52:12.309Z,5.09
2018-11-21T10:55:02.132Z,5.31
2018-11-21T10:57:52.191Z,5.08
2018-11-21T11:01:01.045Z,5.26
2018-11-21T11:03:53.468Z,5.17
2018-11-21T11:07:01.949Z,5.20
2018-11-21T11:10:02.519Z,5.17
2018-11-21T11:13:10.950Z,5.23
2018-11-21T11:16:20.009Z,5.44
2018-11-21T11:19:28.447Z,5.69
2018-11-21T11:25:51.180Z,5.48
2018-11-21T11:28:59.642Z,5.69
2018-11-21T11:32:08.101Z,5.61
2018-11-21T11:35:16.560Z,5.47
2018-11-21T11:38:25.033Z,5.51
2018-11-21T11:41:33.473Z,5.58
2018-11-21T11:44:42.202Z,5.53
2018-11-21T11:47:50.620Z,5.58
2018-11-21T11:50:59.057Z,5.34
2018-11-21T11:54:07.478Z,5.45
2018-11-21T11:57:16.179Z,5.52
2018-11-21T12:00:16.675Z,5.58
2018-11-21T12:03:25.225Z,5.77
2018-11-21T12:06:33.717Z,5.73
2018-11-21T12:09:42.171Z,5.73
2018-11-21T12:12:50.653Z,5.70
2018-11-21T12:15:47.399Z,5.65
2018-11-21T12:18:55.863Z,5.75
2018-11-21T12:21:56.152Z,5.74
2018-11-21T12:25:04.603Z,5.74
2018-11-21T12:28:13.419Z,5.62
2018-11-21T12:31:21.911Z,5.73
2018-11-21T12:34:30.345Z,5.76
2018-11-21T12:37:38.793Z,5.82
2018-11-21T12:40:47.235Z,5.78
2018-11-21T12:43:55.662Z,5.70
2018-11-21T12:47:04.140Z,5.74
2018-11-21T12:50:12.578Z,5.78
2018-11-21T12:53:21.185Z,5.77
2018-11-21T12:56:29.918Z,5.83
2018-11-21T12:59:38.385Z,5.76
2018-11-21T13:02:46.835Z,5.82
2018-11-21T13:05:55.287Z,5.73
2018-11-21T13:09:04.004Z,5.88
2018-11-21T13:12:13.017Z,5.98
2018-11-21T13:15:21.436Z,6.00
2018-11-21T13:18:29.912Z,5.85
2018-11-21T13:21:38.352Z,5.94
2018-11-21T13:24:37.836Z,6.00
2018-11-21T13:27:46.291Z,5.86
2018-11-21T13:30:54.745Z,5.96
2018-11-21T13:34:03.192Z,5.90
2018-11-21T13:37:11.640Z,5.91
2018-11-21T13:40:20.103Z,5.98
2018-11-21T13:43:28.529Z,6.05
2018-11-21T13:46:36.956Z,6.05
2018-11-21T13:49:32.378Z,6.13
2018-11-21T13:52:29.265Z,6.22
2018-11-21T13:55:19.052Z,6.35
2018-11-21T13:58:08.853Z,6.24
2018-11-21T14:00:58.692Z,6.09
2018-11-21T14:03:48.747Z,6.08
2018-11-21T14:06:38.545Z,6.16
2018-11-21T14:09:28.349Z,6.21
2018-11-21T14:12:18.180Z,6.36
2018-11-21T14:15:28.022Z,6.31
2018-11-21T14:18:36.700Z,6.37
2018-11-21T14:21:26.496Z,6.32
2018-11-21T14:24:16.920Z,6.27
2018-11-21T14:27:06.775Z,6.18
2018-11-21T14:29:56.593Z,6.26
2018-11-21T14:32:46.718Z,6.31
2018-11-21T14:35:36.513Z,6.26
2018-11-21T14:38:26.317Z,6.30
2018-11-21T14:41:16.363Z,6.19
2018-11-21T14:44:06.917Z,6.25
2018-11-21T14:46:58.108Z,6.24
2018-11-21T14:49:51.976Z,6.11
2018-11-21T14:52:41.775Z,6.11
2018-11-21T14:55:34.599Z,5.97
2018-11-21T15:01:20.653Z,6.29
2018-11-21T15:04:10.471Z,6.41
2018-11-21T15:07:00.329Z,6.44
2018-11-21T15:09:50.152Z,6.39
2018-11-21T15:12:39.948Z,6.36
2018-11-21T15:15:29.780Z,6.25
2018-11-21T15:18:19.632Z,6.18
2018-11-21T15:21:16.278Z,6.17
2018-11-21T15:23:59.275Z,6.33
2018-11-21T15:26:49.073Z,6.38
2018-11-21T15:29:38.880Z,6.41
2018-11-21T15:32:20.976Z,6.38
2018-11-21T15:35:10.928Z,6.30
2018-11-21T15:38:00.973Z,6.26
2018-11-21T15:40:51.537Z,6.33
2018-11-21T15:43:41.351Z,6.40
2018-11-21T15:46:31.164Z,6.35
2018-11-21T15:49:21.017Z,6.31
2018-11-21T15:52:11.067Z,6.30
2018-11-21T15:55:01.458Z,6.20
2018-11-21T15:57:51.642Z,6.31
2018-11-21T16:00:41.480Z,6.31
2018-11-21T16:03:31.345Z,6.29
2018-11-21T16:06:40.164Z,6.19
2018-11-21T16:09:30.336Z,6.26
2018-11-21T16:12:20.181Z,6.43
2018-11-21T16:15:35.390Z,6.33
2018-11-21T16:18:37.491Z,6.30
2018-11-21T16:21:27.350Z,6.37
2018-11-21T16:24:17.512Z,6.33
2018-11-21T16:27:07.530Z,6.20
2018-11-21T16:29:57.700Z,6.19
2018-11-21T16:32:48.049Z,6.11
2018-11-21T16:35:38.137Z,6.25
2018-11-21T16:38:27.941Z,6.15
2018-11-21T16:41:17.761Z,6.15
2018-11-21T16:44:07.927Z,6.17
2018-11-21T16:46:57.766Z,6.28
2018-11-21T16:49:47.865Z,6.27
2018-11-21T16:52:38.006Z,6.29
2018-11-21T16:55:28.519Z,6.28
2018-11-21T16:58:37.352Z,6.26
2018-11-21T17:01:27.180Z,5.98
2018-11-21T17:04:17.001Z,6.14
2018-11-21T17:07:06.389Z,6.23
2018-11-21T17:09:56.221Z,6.27
2018-11-21T17:12:46.584Z,6.38
2018-11-21T17:15:36.790Z,6.37
2018-11-21T17:18:27.107Z,6.51
2018-11-21T17:21:16.929Z,6.42
2018-11-21T17:24:25.886Z,6.44
2018-11-21T17:27:15.680Z,6.45
2018-11-21T17:30:08.673Z,6.45
2018-11-21T17:32:58.471Z,6.42
2018-11-21T17:35:48.542Z,6.45
2018-11-21T17:38:38.578Z,6.36
2018-11-21T17:41:28.394Z,6.40
2018-11-21T17:44:18.205Z,6.38
2018-11-21T17:47:08.323Z,6.38
2018-11-21T17:49:58.141Z,6.36
2018-11-21T17:52:48.715Z,6.31
2018-11-21T17:55:39.852Z,6.39
2018-11-21T17:58:29.633Z,6.28
2018-11-21T18:01:19.451Z,6.35
2018-11-21T18:04:09.769Z,6.24
2018-11-21T18:06:59.592Z,6.25
2018-11-21T18:09:49.414Z,6.38
2018-11-21T18:12:39.980Z,6.32
2018-11-21T18:15:29.854Z,6.22
2018-11-21T18:18:19.643Z,6.28
2018-11-21T18:21:10.012Z,6.15
2018-11-21T18:24:18.465Z,6.16
2018-11-21T18:27:08.279Z,6.22
2018-11-21T18:29:58.080Z,6.26
2018-11-21T18:32:48.087Z,6.18
2018-11-21T18:35:37.942Z,6.16
2018-11-21T18:38:27.767Z,6.08
2018-11-21T18:41:17.578Z,6.20
2018-11-21T18:44:07.415Z,6.16
2018-11-21T18:46:57.236Z,6.18
2018-11-21T18:49:47.069Z,6.27
2018-11-21T18:52:37.614Z,6.27
2018-11-21T18:55:47.543Z,6.28
2018-11-21T18:59:15.373Z,6.33
2018-11-21T19:02:05.571Z,6.22
2018-11-21T19:04:55.363Z,6.29
2018-11-21T19:07:45.255Z,6.28
2018-11-21T19:10:35.078Z,6.29
2018-11-21T19:13:26.244Z,6.21
2018-11-21T19:16:16.029Z,6.32
2018-11-21T19:19:06.023Z,6.26
2018-11-21T19:21:55.863Z,6.38
2018-11-21T19:25:05.125Z,6.41
2018-11-21T19:27:54.991Z,6.35
2018-11-21T19:30:44.823Z,6.45
2018-11-21T19:33:34.665Z,6.54
2018-11-21T19:36:24.449Z,6.54
2018-11-21T19:39:14.903Z,6.57
2018-11-21T19:42:04.705Z,6.58
2018-11-21T19:44:54.584Z,6.59
2018-11-21T19:47:44.448Z,6.54
2018-11-21T19:50:34.812Z,6.53
2018-11-21T19:53:43.279Z,6.53
2018-11-21T19:56:33.376Z,6.39
2018-11-21T19:59:23.223Z,6.42
2018-11-21T20:02:13.028Z,6.45
2018-11-21T20:05:03.091Z,6.44
2018-11-21T20:08:11.533Z,6.39
2018-11-21T20:11:01.320Z,6.39
2018-11-21T20:13:51.214Z,6.35
2018-11-21T20:16:41.278Z,6.38
2018-11-21T20:19:31.145Z,6.47
2018-11-21T20:22:21.216Z,6.48
2018-11-21T20:25:12.903Z,6.51
2018-11-21T20:28:02.740Z,6.58
2018-11-21T20:30:52.821Z,6.54
2018-11-21T20:33:42.939Z,6.48
2018-11-21T20:36:32.742Z,6.32
2018-11-21T20:39:46.817Z,6.35
2018-11-21T20:42:31.036Z,6.46
2018-11-21T20:45:25.260Z,6.49
2018-11-21T20:48:15.411Z,6.60
2018-11-21T20:51:05.313Z,6.64
2018-11-21T20:53:55.464Z,6.57
2018-11-21T20:56:45.637Z,6.55
2018-11-21T20:59:35.709Z,6.51
2018-11-21T21:02:25.811Z,6.47
2018-11-21T21:05:16.883Z,6.45
2018-11-21T21:07:47.809Z,6.39
2018-11-21T21:10:20.158Z,6.40
2018-11-21T21:12:50.913Z,6.44
2018-11-21T21:15:21.742Z,6.39
2018-11-21T21:17:52.551Z,6.50
2018-11-21T21:20:24.784Z,6.54
2018-11-21T21:22:57.319Z,6.47
2018-11-21T21:25:47.421Z,6.51
2018-11-21T21:28:37.281Z,6.51
2018-11-21T21:31:27.085Z,6.48
2018-11-21T21:34:16.915Z,6.48
2018-11-21T21:37:07.256Z,6.47
2018-11-21T21:39:57.322Z,6.42
2018-11-21T21:42:47.401Z,6.50
2018-11-21T21:45:40.406Z,6.45
2018-11-21T21:48:40.535Z,6.45
2018-11-21T21:51:36.993Z,6.41
2018-11-21T21:54:26.731Z,6.41
2018-11-21T21:57:16.539Z,6.32
2018-11-21T22:00:27.602Z,6.36
2018-11-21T22:03:17.411Z,6.35
2018-11-21T22:06:26.469Z,6.33
2018-11-21T22:09:16.535Z,6.31
2018-11-21T22:12:06.559Z,6.24
2018-11-21T22:14:56.370Z,6.25
2018-11-21T22:17:46.181Z,6.36
2018-11-21T22:20:36.281Z,6.38
2018-11-21T22:23:26.090Z,6.36
2018-11-21T22:26:15.907Z,6.29
2018-11-21T22:29:05.798Z,6.22
2018-11-21T22:31:55.589Z,6.37
2018-11-21T22:34:45.402Z,6.32
2018-11-21T22:37:38.041Z,6.27
2018-11-21T22:40:25.070Z,6.28
2018-11-21T22:43:14.885Z,6.42
2018-11-21T22:46:04.704Z,6.37
2018-11-21T22:48:54.522Z,6.49
2018-11-21T22:51:47.648Z,6.55
2018-11-21T22:54:34.219Z,6.58
2018-11-21T22:57:24.053Z,6.49
2018-11-21T23:00:52.033Z,6.56
2018-11-21T23:03:41.836Z,6.42
2018-11-21T23:06:31.689Z,6.28
2018-11-21T23:09:21.500Z,6.43
2018-11-21T23:12:11.300Z,6.48
2018-11-21T23:14:53.276Z,6.40
2018-11-21T23:18:02.334Z,6.59
2018-11-21T23:20:52.141Z,6.54
2018-11-21T23:23:41.980Z,6.43
2018-11-21T23:29:28.107Z,6.38
2018-11-21T23:32:17.913Z,6.37
2018-11-21T23:35:27.289Z,6.35
2018-11-21T23:38:17.084Z,6.40
2018-11-21T23:41:06.997Z,6.40
2018-11-21T23:43:56.808Z,6.44
2018-11-21T23:46:46.968Z,6.44
2018-11-21T23:49:37.091Z,6.41
2018-11-21T23:52:26.887Z,6.36
2018-11-21T23:55:20.704Z,6.36
2018-11-21T23:58:10.502Z,6.28
